Time;durP1;ratioP1;P1;durP2;ratioP2;P2;SDS_P1;SDS_P2;PMS_P1;PMS_P2;Temp;Humidity;BMP_temperature;BMP_pressure;BME280_temperature;BME280_humidity;BME280_pressure;Samples;Min_cycle;Max_cycle;Signal;HPM_P1;HPM_P2
2022/12/13 00:02:04;;;;;;;50.25;24.40;;;;;;;-5.08;100.00;100549.66;4987838;28;20050;-80
2022/12/13 00:04:31;;;;;;;47.47;23.17;;;;;;;-5.07;100.00;100548.78;4985388;28;20073;-79
2022/12/13 00:06:59;;;;;;;58.72;26.60;;;;;;;-5.10;100.00;100550.59;4988800;28;20047;-80
2022/12/13 00:09:26;;;;;;;58.55;26.20;;;;;;;-5.11;100.00;100549.78;4987923;28;20055;-80
2022/12/13 00:11:53;;;;;;;47.60;24.20;;;;;;;-5.13;100.00;100550.72;4985326;28;20083;-79
2022/12/13 00:14:23;;;;;;;54.97;26.05;;;;;;;-5.12;100.00;100548.13;4985431;28;20073;-80
2022/12/13 00:16:53;;;;;;;54.78;25.90;;;;;;;-5.16;100.00;100551.66;4985343;28;20046;-79
2022/12/13 00:19:20;;;;;;;54.10;25.73;;;;;;;-5.16;100.00;100553.38;4977966;28;20042;-80
2022/12/13 00:21:48;;;;;;;52.45;25.23;;;;;;;-5.16;100.00;100541.47;4979397;28;20050;-79
2022/12/13 00:24:18;;;;;;;62.60;27.92;;;;;;;-5.11;100.00;100546.41;4987097;28;20047;-79
2022/12/13 00:26:45;;;;;;;62.03;27.40;;;;;;;-5.09;100.00;100548.00;4985589;28;20046;-79
2022/12/13 00:29:13;;;;;;;62.53;26.85;;;;;;;-5.08;100.00;100548.81;4983497;28;20074;-78
2022/12/13 00:31:39;;;;;;;64.10;26.73;;;;;;;-5.10;100.00;100545.50;4983134;28;20050;-79
2022/12/13 00:34:06;;;;;;;59.08;26.15;;;;;;;-5.11;100.00;100554.88;4982901;28;20058;-78
2022/12/13 00:36:32;;;;;;;63.00;27.02;;;;;;;-5.11;100.00;100554.88;4980394;28;20185;-78
2022/12/13 00:39:02;;;;;;;60.88;25.45;;;;;;;-5.13;100.00;100560.94;4979134;28;20054;-79
2022/12/13 00:41:32;;;;;;;59.80;25.42;;;;;;;-5.15;100.00;100557.59;4981671;28;20055;-79
2022/12/13 00:44:00;;;;;;;60.60;26.90;;;;;;;-5.17;100.00;100547.44;4982652;28;20114;-79
2022/12/13 00:46:27;;;;;;;63.72;25.50;;;;;;;-5.11;100.00;100554.88;4980532;28;20155;-79
2022/12/13 00:48:56;;;;;;;57.30;26.55;;;;;;;-5.03;100.00;100557.97;4982724;28;20133;-79
2022/12/13 00:51:23;;;;;;;61.33;27.25;;;;;;;-5.08;100.00;100554.75;4985991;28;20051;-79
2022/12/13 00:53:50;;;;;;;57.72;27.50;;;;;;;-5.14;100.00;100549.88;4987181;28;20140;-79
2022/12/13 00:56:20;;;;;;;57.42;27.02;;;;;;;-5.23;100.00;100540.06;4985589;28;20050;-80
2022/12/13 00:58:49;;;;;;;56.10;27.50;;;;;;;-5.19;100.00;100546.69;4980404;28;20390;-78
2022/12/13 01:01:18;;;;;;;63.75;27.35;;;;;;;-5.26;100.00;100552.09;4980443;28;20114;-80
2022/12/13 01:03:45;;;;;;;61.17;26.27;;;;;;;-5.24;100.00;100543.50;4988448;28;20050;-80
2022/12/13 01:06:14;;;;;;;60.08;26.42;;;;;;;-5.29;100.00;100547.94;4986363;28;20051;-79
2022/12/13 01:08:41;;;;;;;59.38;26.45;;;;;;;-5.30;100.00;100553.09;4987080;28;20190;-80
2022/12/13 01:11:08;;;;;;;55.63;25.73;;;;;;;-5.30;100.00;100553.94;4986395;28;20487;-80
2022/12/13 01:13:35;;;;;;;57.20;25.35;;;;;;;-5.26;100.00;100545.28;4987977;28;20051;-81
2022/12/13 01:16:08;;;;;;;68.88;28.58;;;;;;;-5.15;100.00;100544.84;4988049;28;20054;-80
2022/12/13 01:18:35;;;;;;;61.72;28.23;;;;;;;-4.97;100.00;100550.97;4987440;28;20047;-80
2022/12/13 01:21:05;;;;;;;60.78;28.05;;;;;;;-4.97;100.00;100551.81;4986947;28;20066;-79
2022/12/13 01:23:32;;;;;;;61.38;28.85;;;;;;;-5.03;100.00;100546.94;4968588;29;20059;-81
2022/12/13 01:26:02;;;;;;;66.70;29.73;;;;;;;-5.05;100.00;100534.22;4968257;29;20134;-80
2022/12/13 01:28:28;;;;;;;69.15;29.02;;;;;;;-5.02;100.00;100546.88;4975316;28;20134;-80
2022/12/13 01:30:56;;;;;;;72.93;31.50;;;;;;;-5.05;100.00;100544.44;4989883;28;20043;-80
2022/12/13 01:33:25;;;;;;;78.25;34.05;;;;;;;-5.10;100.00;100538.69;4991897;28;20058;-80
2022/12/13 01:35:51;;;;;;;73.50;30.33;;;;;;;-5.08;100.00;100553.94;4987571;28;20082;-81
2022/12/13 01:38:18;;;;;;;71.32;29.63;;;;;;;-5.19;100.00;100546.69;4985753;28;20054;-78
2022/12/13 01:40:46;;;;;;;68.05;29.50;;;;;;;-5.24;100.00;100548.59;4987263;28;20089;-79
2022/12/13 01:43:14;;;;;;;77.93;30.25;;;;;;;-5.25;100.00;100554.59;4988897;28;20055;-78
2022/12/13 01:45:41;;;;;;;72.43;30.38;;;;;;;-5.28;100.00;100558.97;4987382;28;20060;-81
2022/12/13 01:48:12;;;;;;;69.80;30.42;;;;;;;-5.32;100.00;100555.72;4987989;28;20089;-80
2022/12/13 01:50:44;;;;;;;76.30;32.35;;;;;;;-5.13;100.00;100558.38;4988588;28;20400;-78
2022/12/13 01:53:15;;;;;;;72.60;31.83;;;;;;;-5.18;100.00;100553.44;4985643;28;20114;-79
2022/12/13 01:55:45;;;;;;;70.05;29.98;;;;;;;-5.18;100.00;100553.44;4986353;28;20066;-79
2022/12/13 01:58:13;;;;;;;71.20;31.52;;;;;;;-5.22;100.00;100551.94;4983340;28;20449;-80
2022/12/13 02:03:07;;;;;;;73.25;30.95;;;;;;;-5.38;100.00;100554.22;5027305;23;20046;-82
2022/12/13 02:05:39;;;;;;;73.30;30.00;;;;;;;-5.39;100.00;100549.19;5007496;28;20042;-78
2022/12/13 02:08:10;;;;;;;72.10;33.88;;;;;;;-5.45;100.00;100552.78;5007421;28;20081;-82
2022/12/13 02:10:36;;;;;;;69.03;30.88;;;;;;;-5.42;100.00;100555.22;5007066;28;20089;-81
2022/12/13 02:13:04;;;;;;;73.07;31.30;;;;;;;-5.45;100.00;100555.34;4984191;28;20137;-81
2022/12/13 02:15:41;;;;;;;69.25;30.80;;;;;;;-5.45;100.00;100551.94;4984927;28;20502;-80
2022/12/13 02:18:28;;;;;;;71.03;30.40;;;;;;;-5.52;100.00;100550.50;4984774;28;20082;-78
2022/12/13 02:21:11;;;;;;;68.82;30.45;;;;;;;-5.57;100.00;100550.69;4982223;28;20479;-80
2022/12/13 02:24:26;;;;;;;62.30;28.67;;;;;;;-5.62;100.00;100557.66;4986728;28;20157;-79
2022/12/13 02:27:00;;;;;;;69.57;30.77;;;;;;;-5.70;100.00;100550.31;4986005;28;20051;-79
2022/12/13 02:30:00;;;;;;;66.45;29.13;;;;;;;-5.67;100.00;100555.28;4982763;28;20101;-79
2022/12/13 02:32:35;;;;;;;66.00;30.35;;;;;;;-5.72;100.00;100557.19;4981647;28;20051;-78
2022/12/13 02:35:06;;;;;;;66.05;29.88;;;;;;;-5.74;100.00;100553.84;4980057;28;20047;-78
2022/12/13 02:37:44;;;;;;;64.38;29.13;;;;;;;-5.74;100.00;100553.84;4980774;28;20082;-78
2022/12/13 02:40:17;;;;;;;70.10;29.90;;;;;;;-5.80;100.00;100548.97;4978963;28;20490;-77
2022/12/13 02:42:52;;;;;;;65.88;29.92;;;;;;;-5.83;100.00;100554.19;4979440;28;20106;-77
2022/12/13 02:45:24;;;;;;;73.32;30.63;;;;;;;-5.80;100.00;100548.16;4981430;28;20182;-79
2022/12/13 02:47:55;;;;;;;75.13;33.00;;;;;;;-5.61;100.00;100549.13;4982955;28;20055;-79
2022/12/13 02:50:25;;;;;;;72.30;32.45;;;;;;;-5.72;100.00;100551.25;4985295;28;20082;-80
2022/12/13 02:52:52;;;;;;;75.00;31.63;;;;;;;-5.73;100.00;100544.50;4984694;28;20374;-80
2022/12/13 02:55:19;;;;;;;76.05;33.25;;;;;;;-5.59;100.00;100551.63;4984748;28;20074;-79
2022/12/13 02:57:47;;;;;;;69.38;30.27;;;;;;;-5.68;100.00;100543.44;4979963;28;20050;-78
2022/12/13 03:00:17;;;;;;;73.30;31.08;;;;;;;-5.75;100.00;100542.00;4979763;28;20053;-77
2022/12/13 03:02:58;;;;;;;65.80;30.65;;;;;;;-5.76;100.00;100535.25;4978122;28;20513;-78
2022/12/13 03:08:22;;;;;;;67.25;30.30;;;;;;;-5.87;100.00;100532.25;4983019;28;20474;-78
2022/12/13 03:10:59;;;;;;;68.63;30.45;;;;;;;-5.93;100.00;100534.19;4980305;28;20055;-78
2022/12/13 03:13:37;;;;;;;67.05;30.58;;;;;;;-5.87;100.00;100536.50;4980483;28;20059;-80
2022/12/13 03:16:11;;;;;;;79.53;32.20;;;;;;;-5.71;100.00;100535.06;4979027;28;20069;-79
2022/12/13 03:18:40;;;;;;;78.15;31.55;;;;;;;-5.68;100.00;100535.81;4978752;28;20082;-78
2022/12/13 03:21:09;;;;;;;72.18;31.05;;;;;;;-5.70;100.00;100529.09;4979782;28;20421;-78
2022/12/13 03:23:36;;;;;;;74.18;32.95;;;;;;;-5.63;100.00;100534.78;4979519;28;20212;-78
2022/12/13 03:26:09;;;;;;;73.32;32.10;;;;;;;-5.66;100.00;100535.72;4980065;28;20190;-80
2022/12/13 03:28:36;;;;;;;78.05;30.35;;;;;;;-5.79;100.00;100534.53;4980055;28;20086;-78
2022/12/13 03:31:03;;;;;;;75.88;33.10;;;;;;;-5.82;100.00;100532.06;4981391;28;20086;-79
2022/12/13 03:33:29;;;;;;;73.88;31.17;;;;;;;-5.75;100.00;100530.97;4982270;28;20105;-79
2022/12/13 03:35:58;;;;;;;70.43;30.27;;;;;;;-5.85;100.00;100537.28;4981044;28;20089;-78
2022/12/13 03:38:26;;;;;;;79.70;32.63;;;;;;;-5.74;100.00;100546.22;4979640;28;20090;-78
2022/12/13 03:40:55;;;;;;;76.38;31.02;;;;;;;-5.73;100.00;100539.41;4979340;28;20085;-79
2022/12/13 03:43:22;;;;;;;77.03;32.38;;;;;;;-5.78;100.00;100537.00;4978300;28;20114;-78
2022/12/13 03:45:49;;;;;;;74.38;31.92;;;;;;;-5.75;100.00;100534.34;4980843;28;20560;-78
2022/12/13 03:48:15;;;;;;;72.28;33.33;;;;;;;-5.81;100.00;100529.47;4962072;29;20142;-81
2022/12/13 03:50:42;;;;;;;87.30;34.63;;;;;;;-5.76;100.00;100532.69;4966785;28;20529;-78
2022/12/13 03:53:14;;;;;;;71.38;32.22;;;;;;;-5.79;100.00;100527.69;4982795;28;20118;-81
2022/12/13 03:55:40;;;;;;;81.25;32.00;;;;;;;-5.76;100.00;100530.16;4982140;28;20493;-80
2022/12/13 03:58:07;;;;;;;80.43;32.38;;;;;;;-5.84;100.00;100527.03;4978944;28;20118;-79
2022/12/13 04:00:33;;;;;;;79.13;32.42;;;;;;;-5.84;100.00;100521.94;4976496;28;20137;-78
2022/12/13 04:03:00;;;;;;;74.28;32.08;;;;;;;-5.81;100.00;100528.66;4975675;28;20085;-78
2022/12/13 04:05:27;;;;;;;72.65;31.80;;;;;;;-5.74;100.00;100523.28;4974097;28;20158;-76
2022/12/13 04:07:54;;;;;;;82.20;31.75;;;;;;;-5.73;100.00;100519.00;4973617;28;20141;-78
2022/12/13 04:10:22;;;;;;;83.38;32.17;;;;;;;-5.76;100.00;100514.03;4974469;28;20566;-78
2022/12/13 04:15:32;;;;;;;76.75;31.42;;;;;;;-5.80;100.00;100515.00;4975264;28;20512;-79
2022/12/13 04:17:59;;;;;;;68.90;30.23;;;;;;;-5.71;100.00;100505.31;4976733;28;20148;-77
2022/12/13 04:20:26;;;;;;;73.43;31.52;;;;;;;-5.69;100.00;100506.09;4981662;28;20142;-78
2022/12/13 04:22:52;;;;;;;73.00;32.63;;;;;;;-5.64;100.00;100502.53;4978285;28;20047;-80
2022/12/13 04:25:19;;;;;;;79.32;32.42;;;;;;;-5.65;100.00;100498.31;4975070;28;20058;-78
2022/12/13 04:27:47;;;;;;;75.72;32.15;;;;;;;-5.64;100.00;100495.69;4980155;28;20094;-80
2022/12/13 04:30:14;;;;;;;73.93;32.50;;;;;;;-5.69;100.00;100495.91;4976962;28;20234;-79
2022/12/13 04:32:40;;;;;;;73.47;29.75;;;;;;;-5.71;100.00;100495.13;4981142;28;20081;-80
2022/12/13 04:35:08;;;;;;;71.60;30.98;;;;;;;-5.79;100.00;100492.03;4982006;28;20077;-79
2022/12/13 04:37:34;;;;;;;69.03;29.42;;;;;;;-5.73;100.00;100496.91;4981965;28;20268;-79
2022/12/13 04:40:01;;;;;;;71.70;29.70;;;;;;;-5.84;100.00;100493.91;4982222;28;20082;-80
2022/12/13 04:42:29;;;;;;;75.03;29.63;;;;;;;-5.84;100.00;100500.72;4981032;28;20118;-79
2022/12/13 04:44:57;;;;;;;67.68;29.88;;;;;;;-5.80;100.00;100492.91;4981974;28;20078;-79
2022/12/13 04:47:23;;;;;;;75.40;30.58;;;;;;;-5.77;100.00;100482.59;4980002;28;20079;-80
2022/12/13 04:49:50;;;;;;;68.15;29.92;;;;;;;-5.77;100.00;100487.69;4979368;28;20086;-79
2022/12/13 04:52:16;;;;;;;76.10;31.35;;;;;;;-5.71;100.00;100491.75;4979297;28;20149;-78
2022/12/13 04:54:43;;;;;;;71.43;30.23;;;;;;;-5.72;100.00;100482.44;4975848;28;20133;-78
2022/12/13 04:57:11;;;;;;;71.72;30.08;;;;;;;-5.76;100.00;100478.34;4975891;28;20081;-79
2022/12/13 04:59:38;;;;;;;65.72;29.58;;;;;;;-5.72;100.00;100483.28;4974712;28;20110;-78
2022/12/13 05:02:07;;;;;;;78.63;31.65;;;;;;;-5.75;100.00;100474.91;4975812;28;20058;-78
2022/12/13 05:04:34;;;;;;;71.25;30.10;;;;;;;-5.75;100.00;100464.72;4980892;28;20078;-78
2022/12/13 05:07:02;;;;;;;67.70;29.52;;;;;;;-5.79;100.00;100463.16;4980672;28;20043;-77
2022/12/13 05:09:28;;;;;;;67.07;29.48;;;;;;;-5.84;100.00;100470.13;4979952;28;20062;-78
2022/12/13 05:11:55;;;;;;;65.63;29.55;;;;;;;-5.91;100.00;100459.38;4980462;28;20134;-78
2022/12/13 05:14:22;;;;;;;63.83;28.23;;;;;;;-5.89;100.00;100466.97;4983369;28;20189;-78
2022/12/13 05:16:49;;;;;;;71.13;29.40;;;;;;;-5.90;100.00;100472.94;4980878;28;20070;-78
2022/12/13 05:19:17;;;;;;;61.42;28.08;;;;;;;-5.95;100.00;100472.28;4982345;28;20074;-80
2022/12/13 05:21:43;;;;;;;63.35;28.27;;;;;;;-5.98;100.00;100473.22;4981972;28;20082;-79
2022/12/13 05:24:10;;;;;;;62.20;27.38;;;;;;;-5.97;100.00;100474.88;4981176;28;20110;-79
2022/12/13 05:26:36;;;;;;;71.07;30.40;;;;;;;-5.96;100.00;100466.34;4978754;28;20075;-79
2022/12/13 05:29:03;;;;;;;68.53;30.83;;;;;;;-5.90;100.00;100468.69;4979744;28;20492;-78
2022/12/13 05:31:30;;;;;;;67.72;29.33;;;;;;;-5.86;100.00;100471.91;4979620;28;20425;-77
2022/12/13 05:33:57;;;;;;;68.45;30.10;;;;;;;-5.86;100.00;100462.56;4981999;28;20137;-78
2022/12/13 05:36:25;;;;;;;73.78;30.60;;;;;;;-5.80;100.00;100475.06;4982723;28;20098;-79
2022/12/13 05:38:52;;;;;;;69.07;30.20;;;;;;;-5.83;100.00;100467.53;4984190;28;20127;-77
2022/12/13 05:41:22;;;;;;;81.63;32.95;;;;;;;-5.83;100.00;100457.34;4982334;28;20051;-78
2022/12/13 05:43:48;;;;;;;81.80;33.15;;;;;;;-5.85;100.00;100466.75;4983220;28;20497;-79
2022/12/13 05:46:15;;;;;;;74.43;32.30;;;;;;;-5.82;100.00;100474.28;4982390;28;20051;-78
2022/12/13 05:48:42;;;;;;;72.68;31.15;;;;;;;-5.84;100.00;100470.97;4983665;28;20078;-79
2022/12/13 05:51:10;;;;;;;62.90;27.75;;;;;;;-5.83;100.00;100465.00;4985408;28;20078;-77
2022/12/13 05:53:38;;;;;;;74.00;31.85;;;;;;;-5.88;100.00;100461.78;4985027;28;20074;-78
2022/12/13 05:56:05;;;;;;;74.25;31.63;;;;;;;-5.94;100.00;100467.13;4990638;28;20069;-81
2022/12/13 05:58:32;;;;;;;77.57;32.15;;;;;;;-5.92;100.00;100470.44;4987565;28;20077;-78
2022/12/13 06:01:04;;;;;;;79.25;30.50;;;;;;;-5.90;100.00;100460.19;4988640;28;20066;-80
2022/12/13 06:03:31;;;;;;;77.90;33.15;;;;;;;-5.93;100.00;100456.06;4987523;28;20070;-81
2022/12/13 06:06:01;;;;;;;76.68;31.35;;;;;;;-6.00;100.00;100459.69;4988493;28;20129;-81
2022/12/13 06:08:27;;;;;;;79.03;31.88;;;;;;;-6.04;100.00;100458.97;4986990;28;20074;-79
2022/12/13 06:10:57;;;;;;;77.28;31.48;;;;;;;-6.09;100.00;100462.56;4986841;28;20090;-78
2022/12/13 06:13:24;;;;;;;79.65;32.38;;;;;;;-6.03;100.00;100467.47;4985074;28;20046;-80
2022/12/13 06:15:50;;;;;;;79.10;32.72;;;;;;;-6.08;100.00;100469.34;4988199;28;20031;-79
2022/12/13 06:18:17;;;;;;;77.20;33.70;;;;;;;-6.09;100.00;100473.59;4994279;28;20062;-79
2022/12/13 06:20:45;;;;;;;72.30;32.15;;;;;;;-6.14;100.00;100462.75;4990682;28;20051;-80
2022/12/13 06:23:11;;;;;;;76.80;32.47;;;;;;;-6.10;100.00;100463.47;4986447;28;20134;-78
2022/12/13 06:25:39;;;;;;;82.78;32.65;;;;;;;-6.05;100.00;100461.59;4986126;28;20046;-79
2022/12/13 06:28:07;;;;;;;75.13;32.20;;;;;;;-6.00;100.00;100462.25;4984469;28;20139;-80
2022/12/13 06:30:33;;;;;;;72.55;30.40;;;;;;;-5.94;100.00;100469.69;4984695;28;20042;-80
2022/12/13 06:33:00;;;;;;;73.25;30.67;;;;;;;-5.94;100.00;100462.03;4983540;28;20078;-79
2022/12/13 06:35:28;;;;;;;64.63;28.00;;;;;;;-5.89;100.00;100462.69;4983201;28;20469;-79
2022/12/13 06:37:54;;;;;;;77.07;31.10;;;;;;;-5.86;100.00;100465.09;4981046;28;20576;-77
2022/12/13 06:40:21;;;;;;;80.28;31.27;;;;;;;-5.90;100.00;100455.09;4981037;28;20134;-80
2022/12/13 06:42:48;;;;;;;64.13;28.35;;;;;;;-5.88;100.00;100461.78;4982462;28;20051;-80
2022/12/13 06:45:16;;;;;;;75.18;30.55;;;;;;;-5.96;100.00;100463.81;4981538;28;20070;-80
2022/12/13 06:47:43;;;;;;;70.00;28.55;;;;;;;-5.97;100.00;100469.78;4983064;28;20074;-80
2022/12/13 06:50:09;;;;;;;71.50;29.63;;;;;;;-5.94;100.00;100466.28;4987768;28;20082;-79
2022/12/13 06:52:36;;;;;;;73.85;30.67;;;;;;;-5.98;100.00;100462.19;4987736;28;20058;-81
2022/12/13 06:55:04;;;;;;;71.72;29.42;;;;;;;-6.03;100.00;100459.81;4989178;28;20051;-81
2022/12/13 06:57:32;;;;;;;68.57;30.73;;;;;;;-6.01;100.00;100463.13;4984090;28;20059;-79
2022/12/13 06:59:59;;;;;;;74.82;30.52;;;;;;;-5.94;100.00;100458.66;4984276;28;20069;-80
2022/12/13 07:02:27;;;;;;;71.78;31.30;;;;;;;-5.94;100.00;100461.19;4984645;28;20070;-82
2022/12/13 07:04:55;;;;;;;69.63;29.77;;;;;;;-6.07;100.00;100455.72;4983743;28;20054;-81
2022/12/13 07:07:21;;;;;;;67.50;30.27;;;;;;;-5.90;100.00;100450.84;4983202;28;20050;-81
2022/12/13 07:09:48;;;;;;;68.60;30.10;;;;;;;-5.77;100.00;100457.13;4982682;28;20125;-81
2022/12/13 07:12:14;;;;;;;64.28;30.15;;;;;;;-5.76;100.00;100460.50;4979624;28;20043;-81
2022/12/13 07:14:41;;;;;;;69.07;29.45;;;;;;;-5.72;100.00;100462.06;4984272;28;20086;-80
2022/12/13 07:17:09;;;;;;;68.72;30.55;;;;;;;-5.77;100.00;100467.31;4983005;28;20081;-81
2022/12/13 07:19:37;;;;;;;70.45;29.55;;;;;;;-5.79;100.00;100464.00;4984430;28;20059;-80
2022/12/13 07:22:05;;;;;;;69.22;28.42;;;;;;;-5.76;100.00;100458.78;4983527;28;20058;-82
2022/12/13 07:24:31;;;;;;;69.82;30.40;;;;;;;-5.69;100.00;100454.28;4983660;28;20047;-79
2022/12/13 07:26:59;;;;;;;59.95;27.45;;;;;;;-5.74;100.00;100458.72;4981514;28;20216;-81
2022/12/13 07:29:26;;;;;;;55.40;27.55;;;;;;;-5.66;100.00;100459.25;4981460;28;20053;-81
2022/12/13 07:31:53;;;;;;;56.53;25.90;;;;;;;-5.65;100.00;100454.97;4980370;28;20418;-79
2022/12/13 07:34:20;;;;;;;58.70;25.60;;;;;;;-5.69;100.00;100446.66;4981612;28;20073;-81
2022/12/13 07:36:49;;;;;;;62.90;27.45;;;;;;;-5.63;100.00;100463.41;4980668;28;20125;-80
2022/12/13 07:39:16;;;;;;;54.80;25.25;;;;;;;-5.61;100.00;100453.97;4980558;28;20513;-80
2022/12/13 07:41:43;;;;;;;58.17;25.30;;;;;;;-5.58;100.00;100461.50;4979613;28;20078;-79
2022/12/13 07:44:09;;;;;;;59.85;27.35;;;;;;;-5.50;100.00;100459.50;4980970;28;20042;-80
2022/12/13 07:46:36;;;;;;;63.83;26.67;;;;;;;-5.34;100.00;100450.38;4981722;28;20097;-80
2022/12/13 07:49:04;;;;;;;60.05;24.65;;;;;;;-5.31;100.00;100454.53;4978804;28;20074;-81
2022/12/13 07:51:33;;;;;;;54.47;24.80;;;;;;;-5.38;100.00;100448.84;4983591;28;20051;-81
2022/12/13 07:54:01;;;;;;;51.08;23.83;;;;;;;-5.38;100.00;100454.75;4975862;28;20110;-81
2022/12/13 07:56:27;;;;;;;55.30;24.10;;;;;;;-5.38;100.00;100456.47;4978712;28;20054;-77
2022/12/13 07:58:54;;;;;;;57.63;24.27;;;;;;;-5.36;100.00;100436.84;4981181;28;20479;-80
2022/12/13 08:01:21;;;;;;;58.55;25.02;;;;;;;-5.33;100.00;100446.94;5006817;23;20050;-77
2022/12/13 08:03:48;;;;;;;53.03;24.92;;;;;;;-5.28;100.00;100454.41;4977766;28;20051;-80
2022/12/13 08:06:18;;;;;;;52.83;23.95;;;;;;;-5.28;100.00;100447.59;4979008;28;20053;-78
2022/12/13 08:08:45;;;;;;;56.75;23.63;;;;;;;-5.32;100.00;100458.78;4978668;28;20050;-79
2022/12/13 08:11:16;;;;;;;57.53;24.50;;;;;;;-5.35;100.00;100462.28;4979284;28;20529;-77
2022/12/13 08:13:43;;;;;;;55.15;23.70;;;;;;;-5.36;100.00;100457.25;4977507;28;20051;-79
2022/12/13 08:16:13;;;;;;;53.00;24.40;;;;;;;-5.38;100.00;100462.41;4979442;28;20082;-80
2022/12/13 08:18:40;;;;;;;50.67;24.13;;;;;;;-5.39;100.00;100457.38;4975615;28;20082;-78
2022/12/13 08:21:09;;;;;;;55.83;24.00;;;;;;;-5.36;100.00;100473.38;4976545;28;20047;-79
2022/12/13 08:23:38;;;;;;;55.53;25.08;;;;;;;-5.39;100.00;100467.56;4976499;28;20113;-80
2022/12/13 08:26:06;;;;;;;54.30;23.38;;;;;;;-5.35;100.00;100472.50;4975564;28;20055;-79
2022/12/13 08:28:35;;;;;;;57.83;24.02;;;;;;;-5.28;100.00;100474.81;4976314;28;20047;-79
2022/12/13 08:31:03;;;;;;;54.20;24.90;;;;;;;-5.27;100.00;100484.97;4977679;28;20433;-78
2022/12/13 08:33:30;;;;;;;55.67;24.52;;;;;;;-5.24;100.00;100482.28;4976895;28;20059;-79
2022/12/13 08:35:57;;;;;;;52.33;23.80;;;;;;;-5.21;100.00;100482.16;4977220;28;20110;-79
2022/12/13 08:38:24;;;;;;;57.47;24.92;;;;;;;-5.18;100.00;100484.56;4978979;28;20055;-78
2022/12/13 08:40:51;;;;;;;55.22;24.65;;;;;;;-5.13;100.00;100471.63;4985485;28;20066;-79
2022/12/13 08:43:17;;;;;;;60.10;25.77;;;;;;;-5.09;100.00;100471.47;4985126;28;20059;-78
2022/12/13 08:45:46;;;;;;;50.42;25.00;;;;;;;-5.03;100.00;100476.31;4984633;28;20054;-78
2022/12/13 08:48:13;;;;;;;58.70;24.25;;;;;;;-4.99;100.00;100479.56;4984884;28;20109;-78
2022/12/13 08:50:39;;;;;;;51.55;23.30;;;;;;;-5.04;100.00;100469.56;4984674;28;20101;-78
2022/12/13 08:53:06;;;;;;;56.05;24.05;;;;;;;-4.99;100.00;100473.66;4983740;28;20105;-78
2022/12/13 08:55:35;;;;;;;54.45;24.02;;;;;;;-4.97;100.00;100471.88;4980874;28;20077;-80
2022/12/13 08:58:07;;;;;;;48.25;23.48;;;;;;;-4.92;100.00;100469.97;4979518;28;20051;-80
2022/12/13 09:00:37;;;;;;;36.20;17.60;;;;;;;-4.91;100.00;100482.66;4979619;28;20518;-80
2022/12/13 09:03:05;;;;;;;52.03;23.65;;;;;;;-4.88;100.00;100481.72;4981148;28;20613;-79
2022/12/13 09:05:34;;;;;;;54.65;22.35;;;;;;;-4.87;100.00;100475.72;4983415;28;20051;-79
2022/12/13 09:08:01;;;;;;;50.10;23.60;;;;;;;-4.79;100.00;100483.88;4978261;28;20062;-79
2022/12/13 09:10:28;;;;;;;58.67;23.50;;;;;;;-4.74;100.00;100482.81;4979008;28;20054;-80
2022/12/13 09:12:56;;;;;;;50.35;23.42;;;;;;;-4.62;100.00;100486.56;4979955;28;20093;-79
2022/12/13 09:15:22;;;;;;;53.53;25.60;;;;;;;-4.63;100.00;100487.44;4979287;28;20076;-79
2022/12/13 09:17:50;;;;;;;67.72;28.42;;;;;;;-4.57;100.00;100483.81;4978444;28;20103;-80
2022/12/13 09:20:18;;;;;;;63.67;29.02;;;;;;;-4.53;100.00;100483.63;4979097;28;20051;-80
2022/12/13 09:22:45;;;;;;;62.22;27.85;;;;;;;-4.49;100.00;100487.72;4978127;28;20451;-79
2022/12/13 09:25:11;;;;;;;58.78;27.88;;;;;;;-4.40;100.00;100482.22;4981265;28;20047;-78
2022/12/13 09:27:38;;;;;;;56.17;26.73;;;;;;;-4.29;100.00;100483.50;4984762;28;20047;-80
2022/12/13 09:30:06;;;;;;;59.30;27.13;;;;;;;-4.34;100.00;100486.25;4980886;28;20078;-79
2022/12/13 09:32:36;;;;;;;54.45;25.33;;;;;;;-4.23;100.00;100498.53;4978234;28;20123;-79
2022/12/13 09:35:03;;;;;;;55.20;25.40;;;;;;;-4.10;100.00;100499.69;4974917;28;20133;-79
2022/12/13 09:37:31;;;;;;;49.35;24.45;;;;;;;-4.02;100.00;100495.91;4973441;28;20623;-78
2022/12/13 09:39:58;;;;;;;53.58;24.30;;;;;;;-3.99;100.00;100487.25;4975956;28;20047;-80
2022/12/13 09:42:27;;;;;;;44.67;23.05;;;;;;;-3.92;100.00;100487.81;4987823;28;20144;-78
2022/12/13 09:44:57;;;;;;;48.50;23.15;;;;;;;-3.76;100.00;100494.72;4985513;28;20047;-79
2022/12/13 09:47:30;;;;;;;48.65;23.73;;;;;;;-3.78;99.76;100481.19;4986954;28;20047;-80
2022/12/13 09:50:00;;;;;;;45.72;22.00;;;;;;;-3.67;99.51;100484.09;4983277;28;20085;-79
2022/12/13 09:52:30;;;;;;;49.15;23.92;;;;;;;-3.59;99.55;100481.19;4987825;28;20027;-80
2022/12/13 09:54:58;;;;;;;46.00;22.55;;;;;;;-3.43;99.38;100489.00;4983973;28;20158;-79
2022/12/13 09:57:28;;;;;;;45.53;21.20;;;;;;;-3.45;99.16;100498.47;4979662;28;20375;-79
2022/12/13 10:00:00;;;;;;;44.53;21.00;;;;;;;-3.40;98.45;100492.25;4982355;28;20153;-80
2022/12/13 10:02:30;;;;;;;41.65;20.35;;;;;;;-3.33;98.28;100497.91;4985597;28;20055;-80
2022/12/13 10:05:09;;;;;;;35.47;19.00;;;;;;;-3.36;97.85;100490.38;4982849;28;20062;-81
2022/12/13 10:07:39;;;;;;;38.38;19.33;;;;;;;-3.36;97.93;100480.97;4976857;28;20035;-80
2022/12/13 10:10:13;;;;;;;37.33;19.02;;;;;;;-3.32;96.88;100468.88;4981032;28;20170;-80
2022/12/13 10:12:42;;;;;;;41.90;19.90;;;;;;;-3.26;96.71;100468.53;4975714;28;20078;-80
2022/12/13 10:15:12;;;;;;;41.45;20.55;;;;;;;-3.26;96.40;100457.47;4979186;28;20051;-80
2022/12/13 10:17:40;;;;;;;41.15;20.17;;;;;;;-3.17;96.28;100463.00;4975092;28;20078;-81
2022/12/13 10:20:17;;;;;;;40.30;20.05;;;;;;;-3.09;96.17;100452.41;4979173;28;20129;-80
2022/12/13 10:22:43;;;;;;;44.38;19.48;;;;;;;-3.09;96.03;100448.09;4976628;28;20707;-80
2022/12/13 10:25:11;;;;;;;39.33;19.80;;;;;;;-3.05;95.37;100447.06;4972349;28;20082;-78
2022/12/13 10:27:40;;;;;;;37.35;19.50;;;;;;;-2.92;95.47;100441.34;4976614;28;20592;-79
2022/12/13 10:30:11;;;;;;;35.90;19.25;;;;;;;-2.92;95.07;100431.09;4984291;28;20133;-80
2022/12/13 10:32:48;;;;;;;36.13;18.67;;;;;;;-2.97;93.78;100427.94;4975087;28;20183;-80
2022/12/13 10:35:23;;;;;;;39.83;19.33;;;;;;;-2.93;93.82;100434.56;4980894;28;20051;-79
2022/12/13 10:37:50;;;;;;;40.00;19.92;;;;;;;-2.92;93.66;100441.34;4983586;28;20070;-79
2022/12/13 10:40:30;;;;;;;38.75;19.50;;;;;;;-2.92;93.31;100420.88;4990809;28;20081;-79
2022/12/13 10:43:07;;;;;;;38.20;19.52;;;;;;;-2.81;93.17;100428.81;4989950;28;20105;-81
2022/12/13 10:45:34;;;;;;;37.50;20.15;;;;;;;-2.87;93.50;100418.91;4983860;28;20054;-79
2022/12/13 10:48:03;;;;;;;43.47;20.50;;;;;;;-2.75;93.04;100421.66;4978548;28;20050;-79
2022/12/13 10:50:31;;;;;;;40.50;19.50;;;;;;;-2.74;92.57;100414.81;4981527;28;20042;-79
2022/12/13 10:53:00;;;;;;;38.70;19.10;;;;;;;-2.57;92.86;100412.25;4973802;28;20055;-80
2022/12/13 10:55:32;;;;;;;35.28;18.10;;;;;;;-2.48;91.98;100410.94;4984249;28;20054;-80
2022/12/13 10:58:01;;;;;;;40.47;19.47;;;;;;;-2.51;91.51;100393.16;4984531;28;20146;-81
2022/12/13 11:00:35;;;;;;;39.50;18.92;;;;;;;-2.33;91.17;100395.59;4979534;28;20394;-83
2022/12/13 11:03:02;;;;;;;33.42;17.08;;;;;;;-2.34;90.50;100396.50;4979465;28;20057;-79
2022/12/13 11:05:32;;;;;;;36.78;17.83;;;;;;;-2.34;90.45;100388.81;4978971;28;20070;-83
2022/12/13 11:08:13;;;;;;;39.67;17.88;;;;;;;-2.26;90.60;100373.03;4977371;28;20106;-77
2022/12/13 11:10:44;;;;;;;36.22;17.52;;;;;;;-2.20;90.25;100387.25;4971909;28;20478;-80
2022/12/13 11:13:24;;;;;;;28.52;15.18;;;;;;;-2.21;89.58;100373.63;4968292;28;20538;-78
2022/12/13 11:15:55;;;;;;;32.75;17.20;;;;;;;-2.17;89.11;100379.41;4975500;28;20047;-79
2022/12/13 11:18:24;;;;;;;34.75;16.90;;;;;;;-2.27;88.82;100378.22;4965115;28;20065;-78